sensor_id;sensor_type;location;lat;lon;timestamp;pressure;altitude;pressure_sealevel;temperature;humidity
55070;BME280;40967;52.070;8.596;2023-04-07T00:01:14;100433.31;;;8.62;72.64
55070;BME280;40967;52.070;8.596;2023-04-07T00:03:39;100431.69;;;8.61;72.81
55070;BME280;40967;52.070;8.596;2023-04-07T00:06:05;100430.56;;;8.57;72.80
55070;BME280;40967;52.070;8.596;2023-04-07T00:08:31;100432.13;;;8.53;73.51
55070;BME280;40967;52.070;8.596;2023-04-07T00:10:59;100427.25;;;8.50;73.79
55070;BME280;40967;52.070;8.596;2023-04-07T00:13:25;100423.38;;;8.41;73.79
55070;BME280;40967;52.070;8.596;2023-04-07T00:15:51;100421.78;;;8.40;74.27
55070;BME280;40967;52.070;8.596;2023-04-07T00:18:16;100419.31;;;8.39;74.64
55070;BME280;40967;52.070;8.596;2023-04-07T00:20:42;100422.28;;;8.37;74.62
55070;BME280;40967;52.070;8.596;2023-04-07T00:23:07;100422.56;;;8.36;74.64
55070;BME280;40967;52.070;8.596;2023-04-07T00:25:32;100417.38;;;8.34;74.39
55070;BME280;40967;52.070;8.596;2023-04-07T00:27:58;100419.56;;;8.32;74.56
55070;BME280;40967;52.070;8.596;2023-04-07T00:30:23;100421.13;;;8.28;75.07
55070;BME280;40967;52.070;8.596;2023-04-07T00:32:48;100419.75;;;8.26;74.59
55070;BME280;40967;52.070;8.596;2023-04-07T00:35:16;100411.56;;;8.21;75.76
55070;BME280;40967;52.070;8.596;2023-04-07T00:37:41;100411.25;;;8.17;75.79
55070;BME280;40967;52.070;8.596;2023-04-07T00:40:07;100407.44;;;8.13;75.79
55070;BME280;40967;52.070;8.596;2023-04-07T00:42:33;100404.13;;;8.06;75.79
55070;BME280;40967;52.070;8.596;2023-04-07T00:44:59;100412.56;;;8.10;76.15
55070;BME280;40967;52.070;8.596;2023-04-07T00:47:24;100412.78;;;8.08;75.90
55070;BME280;40967;52.070;8.596;2023-04-07T00:49:50;100403.31;;;8.05;76.19
55070;BME280;40967;52.070;8.596;2023-04-07T00:52:16;100400.81;;;7.99;76.70
55070;BME280;40967;52.070;8.596;2023-04-07T00:54:43;100407.63;;;8.06;76.95
55070;BME280;40967;52.070;8.596;2023-04-07T00:57:10;100404.13;;;8.06;76.18
55070;BME280;40967;52.070;8.596;2023-04-07T00:59:35;100406.59;;;8.07;76.60
55070;BME280;40967;52.070;8.596;2023-04-07T01:02:07;100403.06;;;8.07;76.90
55070;BME280;40967;52.070;8.596;2023-04-07T01:07:26;100403.31;;;8.05;77.13
55070;BME280;40967;52.070;8.596;2023-04-07T01:09:57;100388.41;;;8.03;76.83
55070;BME280;40967;52.070;8.596;2023-04-07T01:12:43;100403.75;;;7.97;77.57
55070;BME280;40967;52.070;8.596;2023-04-07T01:15:12;100394.28;;;7.95;77.39
55070;BME280;40967;52.070;8.596;2023-04-07T01:17:56;100402.13;;;7.96;77.31
55070;BME280;40967;52.070;8.596;2023-04-07T01:20:25;100398.56;;;7.91;77.70
55070;BME280;40967;52.070;8.596;2023-04-07T01:22:57;100392.41;;;7.95;77.43
55070;BME280;40967;52.070;8.596;2023-04-07T01:30:52;100382.97;;;7.98;76.73
55070;BME280;40967;52.070;8.596;2023-04-07T01:33:21;100383.50;;;7.95;77.09
55070;BME280;40967;52.070;8.596;2023-04-07T01:35:48;100382.97;;;7.98;77.10
55070;BME280;40967;52.070;8.596;2023-04-07T01:38:15;100373.19;;;7.92;76.73
55070;BME280;40967;52.070;8.596;2023-04-07T01:40:42;100385.94;;;7.96;76.89
55070;BME280;40967;52.070;8.596;2023-04-07T01:43:08;100386.75;;;7.97;77.10
55070;BME280;40967;52.070;8.596;2023-04-07T01:45:36;100373.19;;;7.92;76.83
55070;BME280;40967;52.070;8.596;2023-04-07T01:48:05;100381.59;;;7.95;76.64
55070;BME280;40967;52.070;8.596;2023-04-07T01:50:32;100385.88;;;7.91;77.20
55070;BME280;40967;52.070;8.596;2023-04-07T01:52:58;100384.00;;;7.92;77.20
55070;BME280;40967;52.070;8.596;2023-04-07T01:55:23;100382.66;;;7.94;77.19
55070;BME280;40967;52.070;8.596;2023-04-07T01:57:52;100383.19;;;7.91;77.62
55070;BME280;40967;52.070;8.596;2023-04-07T02:00:17;100385.06;;;7.91;78.12
55070;BME280;40967;52.070;8.596;2023-04-07T02:02:44;100383.19;;;7.91;78.51
55070;BME280;40967;52.070;8.596;2023-04-07T02:05:12;100382.94;;;7.93;79.17
55070;BME280;40967;52.070;8.596;2023-04-07T02:07:51;100382.09;;;7.92;78.93
55070;BME280;40967;52.070;8.596;2023-04-07T02:10:21;100382.09;;;7.92;79.66
55070;BME280;40967;52.070;8.596;2023-04-07T02:12:47;100380.47;;;7.91;79.91
55070;BME280;40967;52.070;8.596;2023-04-07T02:15:14;100375.84;;;7.87;79.90
55070;BME280;40967;52.070;8.596;2023-04-07T02:17:43;100381.78;;;7.89;80.63
55070;BME280;40967;52.070;8.596;2023-04-07T02:20:10;100377.72;;;7.86;81.12
55070;BME280;40967;52.070;8.596;2023-04-07T02:22:40;100366.63;;;7.83;80.41
55070;BME280;40967;52.070;8.596;2023-04-07T02:25:26;100375.03;;;7.86;81.03
55070;BME280;40967;52.070;8.596;2023-04-07T02:27:52;100366.38;;;7.84;81.02
55070;BME280;40967;52.070;8.596;2023-04-07T02:30:18;100377.22;;;7.89;80.98
55070;BME280;40967;52.070;8.596;2023-04-07T02:32:44;100371.25;;;7.87;81.92
55070;BME280;40967;52.070;8.596;2023-04-07T02:35:10;100373.16;;;7.87;81.83
55070;BME280;40967;52.070;8.596;2023-04-07T02:37:36;100376.59;;;7.82;82.21
55070;BME280;40967;52.070;8.596;2023-04-07T02:40:05;100380.13;;;7.83;82.63
55070;BME280;40967;52.070;8.596;2023-04-07T02:42:31;100377.94;;;7.80;82.35
55070;BME280;40967;52.070;8.596;2023-04-07T02:44:56;100379.00;;;7.79;82.89
55070;BME280;40967;52.070;8.596;2023-04-07T02:47:21;100381.13;;;7.77;82.99
55070;BME280;40967;52.070;8.596;2023-04-07T02:49:47;100372.72;;;7.73;83.15
55070;BME280;40967;52.070;8.596;2023-04-07T02:52:12;100370.78;;;7.69;83.42
55070;BME280;40967;52.070;8.596;2023-04-07T02:54:38;100382.72;;;7.73;83.96
55070;BME280;40967;52.070;8.596;2023-04-07T02:57:03;100374.88;;;7.71;83.60
55070;BME280;40967;52.070;8.596;2023-04-07T02:59:28;100376.75;;;7.71;84.33
55070;BME280;40967;52.070;8.596;2023-04-07T03:01:54;100377.59;;;7.71;83.64
55070;BME280;40967;52.070;8.596;2023-04-07T03:04:20;100367.22;;;7.63;84.41
55070;BME280;40967;52.070;8.596;2023-04-07T03:06:45;100375.69;;;7.72;84.50
55070;BME280;40967;52.070;8.596;2023-04-07T03:09:11;100376.75;;;7.71;84.65
55070;BME280;40967;52.070;8.596;2023-04-07T03:11:36;100377.03;;;7.69;84.57
55070;BME280;40967;52.070;8.596;2023-04-07T03:14:02;100369.97;;;7.68;85.10
55070;BME280;40967;52.070;8.596;2023-04-07T03:16:27;100380.28;;;7.71;84.61
55070;BME280;40967;52.070;8.596;2023-04-07T03:18:53;100377.81;;;7.70;85.06
55070;BME280;40967;52.070;8.596;2023-04-07T03:21:18;100381.59;;;7.69;85.41
55070;BME280;40967;52.070;8.596;2023-04-07T03:23:43;100375.88;;;7.65;86.23
55070;BME280;40967;52.070;8.596;2023-04-07T03:26:09;100377.81;;;7.70;85.88
55070;BME280;40967;52.070;8.596;2023-04-07T03:28:35;100384.03;;;7.70;85.52
55070;BME280;40967;52.070;8.596;2023-04-07T03:31:00;100381.91;;;7.72;85.68
55070;BME280;40967;52.070;8.596;2023-04-07T03:33:25;100372.41;;;7.70;85.97
55070;BME280;40967;52.070;8.596;2023-04-07T03:35:51;100372.97;;;7.72;86.20
55070;BME280;40967;52.070;8.596;2023-04-07T03:38:16;100374.88;;;7.71;86.86
55070;BME280;40967;52.070;8.596;2023-04-07T03:40:41;100370.78;;;7.69;87.35
55070;BME280;40967;52.070;8.596;2023-04-07T03:43:07;100373.50;;;7.69;87.49
55070;BME280;40967;52.070;8.596;2023-04-07T03:45:37;100375.63;;;7.67;87.43
55070;BME280;40967;52.070;8.596;2023-04-07T03:48:02;100378.59;;;7.65;87.71
55070;BME280;40967;52.070;8.596;2023-04-07T03:50:28;100382.91;;;7.66;87.68
55070;BME280;40967;52.070;8.596;2023-04-07T03:52:53;100382.38;;;7.64;88.10
55070;BME280;40967;52.070;8.596;2023-04-07T03:55:18;100378.59;;;7.65;88.76
55070;BME280;40967;52.070;8.596;2023-04-07T03:57:44;100372.88;;;7.62;88.45
55070;BME280;40967;52.070;8.596;2023-04-07T04:00:10;100375.31;;;7.63;89.26
55070;BME280;40967;52.070;8.596;2023-04-07T04:02:36;100385.88;;;7.65;88.87
55070;BME280;40967;52.070;8.596;2023-04-07T04:05:02;100377.44;;;7.61;89.44
55070;BME280;40967;52.070;8.596;2023-04-07T04:07:27;100385.56;;;7.61;89.77
55070;BME280;40967;52.070;8.596;2023-04-07T04:09:53;100383.09;;;7.60;90.40
55070;BME280;40967;52.070;8.596;2023-04-07T04:12:18;100384.44;;;7.57;90.40
55070;BME280;40967;52.070;8.596;2023-04-07T04:14:43;100376.84;;;7.54;90.43
55070;BME280;40967;52.070;8.596;2023-04-07T04:17:09;100379.78;;;7.53;90.51
55070;BME280;40967;52.070;8.596;2023-04-07T04:19:35;100395.72;;;7.54;90.79
55070;BME280;40967;52.070;8.596;2023-04-07T04:22:00;100387.88;;;7.53;90.47
55070;BME280;40967;52.070;8.596;2023-04-07T04:24:25;100390.34;;;7.54;90.97
55070;BME280;40967;52.070;8.596;2023-04-07T04:26:51;100391.41;;;7.53;90.88
55070;BME280;40967;52.070;8.596;2023-04-07T04:29:16;100383.00;;;7.50;91.27
55070;BME280;40967;52.070;8.596;2023-04-07T04:31:41;100387.84;;;7.48;91.82
55070;BME280;40967;52.070;8.596;2023-04-07T04:34:07;100394.31;;;7.47;91.12
55070;BME280;40967;52.070;8.596;2023-04-07T04:36:32;100396.44;;;7.45;91.48
55070;BME280;40967;52.070;8.596;2023-04-07T04:38:57;100399.41;;;7.43;92.38
55070;BME280;40967;52.070;8.596;2023-04-07T04:41:23;100403.72;;;7.44;92.53
55070;BME280;40967;52.070;8.596;2023-04-07T04:43:48;100396.88;;;7.37;92.19
55070;BME280;40967;52.070;8.596;2023-04-07T04:46:17;100406.94;;;7.41;92.45
55070;BME280;40967;52.070;8.596;2023-04-07T04:48:42;100402.84;;;7.39;92.72
55070;BME280;40967;52.070;8.596;2023-04-07T04:51:07;100410.13;;;7.38;92.77
55070;BME280;40967;52.070;8.596;2023-04-07T04:53:33;100403.59;;;7.34;92.93
55070;BME280;40967;52.070;8.596;2023-04-07T04:55:58;100409.81;;;7.35;93.58
55070;BME280;40967;52.070;8.596;2023-04-07T04:58:23;100402.47;;;7.30;92.98
55070;BME280;40967;52.070;8.596;2023-04-07T05:00:52;100408.16;;;7.34;93.24
55070;BME280;40967;52.070;8.596;2023-04-07T05:03:22;100409.81;;;7.35;93.50
55070;BME280;40967;52.070;8.596;2023-04-07T05:05:47;100410.38;;;7.37;93.73
55070;BME280;40967;52.070;8.596;2023-04-07T05:08:12;100410.38;;;7.37;93.80
55070;BME280;40967;52.070;8.596;2023-04-07T05:10:38;100419.59;;;7.41;93.33
55070;BME280;40967;52.070;8.596;2023-04-07T05:13:04;100415.03;;;7.41;93.40
55070;BME280;40967;52.070;8.596;2023-04-07T05:15:30;100413.16;;;7.42;93.94
55070;BME280;40967;52.070;8.596;2023-04-07T05:17:55;100413.16;;;7.42;94.00
55070;BME280;40967;52.070;8.596;2023-04-07T05:20:20;100426.38;;;7.43;94.46
55070;BME280;40967;52.070;8.596;2023-04-07T05:22:46;100426.06;;;7.40;94.59
55070;BME280;40967;52.070;8.596;2023-04-07T05:25:11;100419.84;;;7.39;94.37
55070;BME280;40967;52.070;8.596;2023-04-07T05:27:37;100420.69;;;7.40;94.52
55070;BME280;40967;52.070;8.596;2023-04-07T05:30:02;100422.88;;;7.43;94.57
55070;BME280;40967;52.070;8.596;2023-04-07T05:32:28;100418.56;;;7.42;95.09
55070;BME280;40967;52.070;8.596;2023-04-07T05:34:53;100421.00;;;7.43;94.88
55070;BME280;40967;52.070;8.596;2023-04-07T05:37:19;100427.19;;;7.44;95.08
55070;BME280;40967;52.070;8.596;2023-04-07T05:39:45;100430.13;;;7.42;95.27
55070;BME280;40967;52.070;8.596;2023-04-07T05:42:10;100425.56;;;7.43;94.82
55070;BME280;40967;52.070;8.596;2023-04-07T05:44:35;100427.19;;;7.44;94.68
55070;BME280;40967;52.070;8.596;2023-04-07T05:47:01;100427.13;;;7.39;94.57
55070;BME280;40967;52.070;8.596;2023-04-07T05:49:30;100435.84;;;7.46;94.63
55070;BME280;40967;52.070;8.596;2023-04-07T05:51:55;100430.72;;;7.44;94.80
55070;BME280;40967;52.070;8.596;2023-04-07T05:54:21;100429.97;;;7.49;94.64
55070;BME280;40967;52.070;8.596;2023-04-07T05:56:46;100440.84;;;7.54;95.04
55070;BME280;40967;52.070;8.596;2023-04-07T05:59:12;100441.63;;;7.54;94.25
55070;BME280;40967;52.070;8.596;2023-04-07T06:01:37;100440.84;;;7.54;94.80
55070;BME280;40967;52.070;8.596;2023-04-07T06:04:02;100446.22;;;7.54;94.46
55070;BME280;40967;52.070;8.596;2023-04-07T06:06:28;100442.44;;;7.55;95.04
55070;BME280;40967;52.070;8.596;2023-04-07T06:08:53;100446.22;;;7.54;94.82
55070;BME280;40967;52.070;8.596;2023-04-07T06:11:19;100442.97;;;7.52;94.63
55070;BME280;40967;52.070;8.596;2023-04-07T06:13:45;100449.47;;;7.56;95.00
55070;BME280;40967;52.070;8.596;2023-04-07T06:16:10;100453.25;;;7.55;94.91
55070;BME280;40967;52.070;8.596;2023-04-07T06:18:36;100457.56;;;7.56;94.70
55070;BME280;40967;52.070;8.596;2023-04-07T06:21:01;100461.09;;;7.56;94.53
55070;BME280;40967;52.070;8.596;2023-04-07T06:23:27;100460.03;;;7.57;95.13
55070;BME280;40967;52.070;8.596;2023-04-07T06:25:52;100460.38;;;7.61;94.66
55070;BME280;40967;52.070;8.596;2023-04-07T06:28:18;100455.50;;;7.63;94.20
55070;BME280;40967;52.070;8.596;2023-04-07T06:30:43;100459.84;;;7.64;94.35
55070;BME280;40967;52.070;8.596;2023-04-07T06:33:09;100463.19;;;7.71;94.04
55070;BME280;40967;52.070;8.596;2023-04-07T06:35:34;100458.03;;;7.69;93.76
55070;BME280;40967;52.070;8.596;2023-04-07T06:38:00;100461.59;;;7.75;93.69
55070;BME280;40967;52.070;8.596;2023-04-07T06:40:26;100471.91;;;7.78;93.79
55070;BME280;40967;52.070;8.596;2023-04-07T06:42:51;100467.56;;;7.77;93.46
55070;BME280;40967;52.070;8.596;2023-04-07T06:45:19;100470.31;;;7.82;93.01
55070;BME280;40967;52.070;8.596;2023-04-07T06:47:44;100474.41;;;7.84;92.76
55070;BME280;40967;52.070;8.596;2023-04-07T06:50:10;100469.50;;;7.81;92.46
55070;BME280;40967;52.070;8.596;2023-04-07T06:52:35;100477.41;;;7.88;92.48
55070;BME280;40967;52.070;8.596;2023-04-07T06:55:01;100479.59;;;7.91;92.24
55070;BME280;40967;52.070;8.596;2023-04-07T06:57:29;100488.59;;;7.96;92.06
55070;BME280;40967;52.070;8.596;2023-04-07T06:59:54;100489.16;;;7.98;91.75
55070;BME280;40967;52.070;8.596;2023-04-07T07:02:20;100475.91;;;7.97;91.90
55070;BME280;40967;52.070;8.596;2023-04-07T07:04:45;100482.41;;;8.01;91.45
55070;BME280;40967;52.070;8.596;2023-04-07T07:07:10;100482.66;;;7.99;90.89
55070;BME280;40967;52.070;8.596;2023-04-07T07:09:36;100491.25;;;7.91;91.00
55070;BME280;40967;52.070;8.596;2023-04-07T07:12:01;100490.41;;;7.91;90.96
55070;BME280;40967;52.070;8.596;2023-04-07T07:14:27;100494.56;;;7.98;91.33
55070;BME280;40967;52.070;8.596;2023-04-07T07:16:52;100484.56;;;7.99;90.63
55070;BME280;40967;52.070;8.596;2023-04-07T07:19:18;100506.72;;;8.01;90.54
55070;BME280;40967;52.070;8.596;2023-04-07T07:21:43;100500.03;;;8.03;90.29
55070;BME280;40967;52.070;8.596;2023-04-07T07:24:08;100504.91;;;8.06;89.47
55070;BME280;40967;52.070;8.596;2023-04-07T07:26:34;100507.34;;;8.08;89.56
55070;BME280;40967;52.070;8.596;2023-04-07T07:29:00;100507.91;;;8.10;89.62
55070;BME280;40967;52.070;8.596;2023-04-07T07:31:25;100507.97;;;8.15;89.32
55070;BME280;40967;52.070;8.596;2023-04-07T07:33:51;100503.41;;;8.16;88.79
55070;BME280;40967;52.070;8.596;2023-04-07T07:36:16;100514.09;;;8.27;88.83
55070;BME280;40967;52.070;8.596;2023-04-07T07:38:42;100512.78;;;8.30;88.60
55070;BME280;40967;52.070;8.596;2023-04-07T07:41:07;100504.72;;;8.35;88.05
55070;BME280;40967;52.070;8.596;2023-04-07T07:43:36;100515.06;;;8.43;87.87
55070;BME280;40967;52.070;8.596;2023-04-07T07:46:02;100523.47;;;8.46;87.55
55070;BME280;40967;52.070;8.596;2023-04-07T07:48:27;100516.22;;;8.52;87.46
55070;BME280;40967;52.070;8.596;2023-04-07T07:50:53;100523.63;;;8.61;86.36
55070;BME280;40967;52.070;8.596;2023-04-07T07:53:21;100512.56;;;8.63;85.83
55070;BME280;40967;52.070;8.596;2023-04-07T07:55:46;100531.31;;;8.74;85.05
55070;BME280;40967;52.070;8.596;2023-04-07T07:58:12;100531.34;;;8.79;85.02
55070;BME280;40967;52.070;8.596;2023-04-07T08:00:38;100523.59;;;8.88;84.48
55070;BME280;40967;52.070;8.596;2023-04-07T08:03:03;100527.16;;;8.93;84.10
55070;BME280;40967;52.070;8.596;2023-04-07T08:05:29;100531.28;;;9.01;83.88
55070;BME280;40967;52.070;8.596;2023-04-07T08:07:54;100527.28;;;9.08;83.06
55070;BME280;40967;52.070;8.596;2023-04-07T08:10:20;100537.06;;;9.14;82.47
55070;BME280;40967;52.070;8.596;2023-04-07T08:12:46;100545.25;;;9.25;82.32
55070;BME280;40967;52.070;8.596;2023-04-07T08:15:11;100543.97;;;9.32;81.97
55070;BME280;40967;52.070;8.596;2023-04-07T08:17:36;100542.41;;;9.41;81.44
55070;BME280;40967;52.070;8.596;2023-04-07T08:20:02;100542.72;;;9.50;80.83
55070;BME280;40967;52.070;8.596;2023-04-07T08:22:28;100544.94;;;9.63;80.42
55070;BME280;40967;52.070;8.596;2023-04-07T08:24:53;100543.41;;;9.77;80.35
55070;BME280;40967;52.070;8.596;2023-04-07T08:27:19;100547.81;;;9.88;79.88
55070;BME280;40967;52.070;8.596;2023-04-07T08:29:50;100543.78;;;9.95;79.16
55070;BME280;40967;52.070;8.596;2023-04-07T08:32:22;100547.63;;;10.09;78.50
55070;BME280;40967;52.070;8.596;2023-04-07T08:34:47;100549.59;;;10.19;78.22
55070;BME280;40967;52.070;8.596;2023-04-07T08:37:13;100553.69;;;10.26;76.99
55070;BME280;40967;52.070;8.596;2023-04-07T08:39:38;100554.75;;;10.30;76.44
55070;BME280;40967;52.070;8.596;2023-04-07T08:42:04;100549.69;;;10.44;75.69
55070;BME280;40967;52.070;8.596;2023-04-07T08:44:30;100551.84;;;10.52;75.26
55070;BME280;40967;52.070;8.596;2023-04-07T08:46:58;100550.53;;;10.60;74.27
55070;BME280;40967;52.070;8.596;2023-04-07T08:49:27;100551.59;;;10.74;74.09
55070;BME280;40967;52.070;8.596;2023-04-07T08:51:55;100557.56;;;10.81;72.94
55070;BME280;40967;52.070;8.596;2023-04-07T08:54:24;100557.06;;;10.89;72.16
55070;BME280;40967;52.070;8.596;2023-04-07T08:56:50;100554.06;;;11.00;71.10
55070;BME280;40967;52.070;8.596;2023-04-07T08:59:16;100565.75;;;11.11;70.36
55070;BME280;40967;52.070;8.596;2023-04-07T09:01:50;100557.88;;;11.14;69.76
55070;BME280;40967;52.070;8.596;2023-04-07T09:04:16;100563.56;;;11.18;69.17
55070;BME280;40967;52.070;8.596;2023-04-07T09:06:42;100568.72;;;11.29;68.75
55070;BME280;40967;52.070;8.596;2023-04-07T09:09:07;100568.47;;;11.36;68.48
55070;BME280;40967;52.070;8.596;2023-04-07T09:11:38;100568.19;;;11.42;67.83
55070;BME280;40967;52.070;8.596;2023-04-07T09:14:04;100568.72;;;11.50;67.34
55070;BME280;40967;52.070;8.596;2023-04-07T09:16:29;100568.44;;;11.56;66.65
55070;BME280;40967;52.070;8.596;2023-04-07T09:18:58;100570.34;;;11.66;66.37
55070;BME280;40967;52.070;8.596;2023-04-07T09:21:24;100576.06;;;11.69;65.69
55070;BME280;40967;52.070;8.596;2023-04-07T09:23:51;100576.31;;;11.73;65.24
55070;BME280;40967;52.070;8.596;2023-04-07T09:26:17;100580.66;;;11.74;64.71
55070;BME280;40967;52.070;8.596;2023-04-07T09:28:48;100571.38;;;11.80;64.48
55070;BME280;40967;52.070;8.596;2023-04-07T09:31:15;100567.59;;;11.81;64.55
55070;BME280;40967;52.070;8.596;2023-04-07T09:33:41;100574.63;;;11.87;64.26
55070;BME280;40967;52.070;8.596;2023-04-07T09:36:06;100576.81;;;11.90;63.66
55070;BME280;40967;52.070;8.596;2023-04-07T09:38:34;100581.41;;;11.94;63.49
55070;BME280;40967;52.070;8.596;2023-04-07T09:41:09;100570.78;;;12.03;63.67
55070;BME280;40967;52.070;8.596;2023-04-07T09:43:37;100576.22;;;12.03;63.33
55070;BME280;40967;52.070;8.596;2023-04-07T09:46:11;100580.28;;;12.10;62.51
55070;BME280;40967;52.070;8.596;2023-04-07T09:48:37;100584.31;;;12.13;62.28
55070;BME280;40967;52.070;8.596;2023-04-07T09:51:12;100579.94;;;12.22;62.07
55070;BME280;40967;52.070;8.596;2023-04-07T09:53:48;100575.78;;;12.39;62.53
55070;BME280;40967;52.070;8.596;2023-04-07T09:56:19;100588.47;;;12.59;62.28
55070;BME280;40967;52.070;8.596;2023-04-07T09:58:47;100581.84;;;12.70;61.67
55070;BME280;40967;52.070;8.596;2023-04-07T10:01:14;100581.31;;;12.73;60.99
55070;BME280;40967;52.070;8.596;2023-04-07T10:03:45;100573.38;;;12.82;60.08
55070;BME280;40967;52.070;8.596;2023-04-07T10:06:11;100579.09;;;12.80;59.22
55070;BME280;40967;52.070;8.596;2023-04-07T10:08:39;100580.59;;;13.01;59.49
55070;BME280;40967;52.070;8.596;2023-04-07T10:11:05;100582.06;;;13.22;59.33
55070;BME280;40967;52.070;8.596;2023-04-07T10:13:32;100578.88;;;13.44;58.87
55070;BME280;40967;52.070;8.596;2023-04-07T10:15:58;100584.41;;;13.62;58.25
55070;BME280;40967;52.070;8.596;2023-04-07T10:18:28;100581.06;;;13.71;57.83
55070;BME280;40967;52.070;8.596;2023-04-07T10:21:01;100578.94;;;13.91;57.13
55070;BME280;40967;52.070;8.596;2023-04-07T10:25:56;100586.81;;;14.16;55.92
55070;BME280;40967;52.070;8.596;2023-04-07T10:28:25;100584.69;;;14.13;55.21
55070;BME280;40967;52.070;8.596;2023-04-07T10:30:52;100590.72;;;14.10;54.94
55070;BME280;40967;52.070;8.596;2023-04-07T10:36:12;100597.00;;;14.11;54.02
55070;BME280;40967;52.070;8.596;2023-04-07T10:38:38;100581.28;;;14.26;53.75
55070;BME280;40967;52.070;8.596;2023-04-07T10:41:32;100589.56;;;14.40;53.14
55070;BME280;40967;52.070;8.596;2023-04-07T10:44:05;100585.66;;;14.46;52.64
55070;BME280;40967;52.070;8.596;2023-04-07T10:49:15;100592.03;;;14.78;52.24
55070;BME280;40967;52.070;8.596;2023-04-07T10:51:41;100592.16;;;15.06;51.93
55070;BME280;40967;52.070;8.596;2023-04-07T10:54:19;100600.13;;;15.21;51.15
55070;BME280;40967;52.070;8.596;2023-04-07T10:59:31;100596.75;;;15.74;50.13
55070;BME280;40967;52.070;8.596;2023-04-07T11:04:48;100598.03;;;16.23;48.42
55070;BME280;40967;52.070;8.596;2023-04-07T11:07:14;100591.28;;;16.42;47.66
55070;BME280;40967;52.070;8.596;2023-04-07T11:09:40;100608.56;;;16.56;47.30
55070;BME280;40967;52.070;8.596;2023-04-07T11:12:21;100600.53;;;16.60;46.15
55070;BME280;40967;52.070;8.596;2023-04-07T11:14:47;100600.50;;;16.73;46.08
55070;BME280;40967;52.070;8.596;2023-04-07T11:17:15;100599.47;;;16.83;45.40
55070;BME280;40967;52.070;8.596;2023-04-07T11:19:52;100600.09;;;16.66;44.07
55070;BME280;40967;52.070;8.596;2023-04-07T11:22:18;100600.03;;;16.71;43.96
55070;BME280;40967;52.070;8.596;2023-04-07T11:24:45;100594.22;;;16.73;43.72
55070;BME280;40967;52.070;8.596;2023-04-07T11:27:14;100602.44;;;16.73;43.45
55070;BME280;40967;52.070;8.596;2023-04-07T11:29:40;100599.44;;;16.61;43.26
55070;BME280;40967;52.070;8.596;2023-04-07T11:32:06;100600.09;;;16.66;43.06
55070;BME280;40967;52.070;8.596;2023-04-07T11:34:34;100605.50;;;16.71;43.12
55070;BME280;40967;52.070;8.596;2023-04-07T11:37:23;100596.03;;;16.77;43.24
55070;BME280;40967;52.070;8.596;2023-04-07T11:39:56;100592.94;;;16.92;43.48
55070;BME280;40967;52.070;8.596;2023-04-07T11:42:34;100596.19;;;17.17;43.09
55070;BME280;40967;52.070;8.596;2023-04-07T11:45:00;100590.34;;;17.32;42.64
55070;BME280;40967;52.070;8.596;2023-04-07T11:47:33;100600.16;;;17.46;42.37
55070;BME280;40967;52.070;8.596;2023-04-07T11:50:00;100601.25;;;17.45;40.44
55070;BME280;40967;52.070;8.596;2023-04-07T11:52:25;100590.72;;;17.39;40.30
55070;BME280;40967;52.070;8.596;2023-04-07T11:54:50;100600.56;;;17.62;39.92
55070;BME280;40967;52.070;8.596;2023-04-07T11:57:24;100601.00;;;17.77;39.94
55070;BME280;40967;52.070;8.596;2023-04-07T11:59:50;100604.03;;;17.76;39.46
55070;BME280;40967;52.070;8.596;2023-04-07T12:02:30;100611.25;;;17.94;39.82
55070;BME280;40967;52.070;8.596;2023-04-07T12:04:56;100610.31;;;18.07;39.53
55070;BME280;40967;52.070;8.596;2023-04-07T12:07:21;100602.94;;;18.16;39.54
55070;BME280;40967;52.070;8.596;2023-04-07T12:09:47;100595.72;;;18.29;39.05
55070;BME280;40967;52.070;8.596;2023-04-07T12:12:13;100616.53;;;18.30;38.58
55070;BME280;40967;52.070;8.596;2023-04-07T12:14:38;100609.25;;;18.17;38.09
55070;BME280;40967;52.070;8.596;2023-04-07T12:17:04;100619.22;;;18.12;37.64
55070;BME280;40967;52.070;8.596;2023-04-07T12:19:31;100601.31;;;18.15;37.10
55070;BME280;40967;52.070;8.596;2023-04-07T12:21:58;100601.00;;;18.17;37.01
55070;BME280;40967;52.070;8.596;2023-04-07T12:24:24;100604.53;;;18.08;36.66
55070;BME280;40967;52.070;8.596;2023-04-07T12:26:49;100609.75;;;18.19;36.39
55070;BME280;40967;52.070;8.596;2023-04-07T12:29:16;100607.16;;;18.22;36.18
55070;BME280;40967;52.070;8.596;2023-04-07T12:31:43;100616.44;;;18.35;35.85
55070;BME280;40967;52.070;8.596;2023-04-07T12:34:09;100613.78;;;18.30;35.72
55070;BME280;40967;52.070;8.596;2023-04-07T12:36:35;100616.88;;;18.37;35.40
55070;BME280;40967;52.070;8.596;2023-04-07T12:39:00;100610.16;;;18.43;35.64
55070;BME280;40967;52.070;8.596;2023-04-07T12:41:25;100618.22;;;18.39;35.58
55070;BME280;40967;52.070;8.596;2023-04-07T12:43:51;100620.09;;;18.30;36.01
55070;BME280;40967;52.070;8.596;2023-04-07T12:46:17;100620.28;;;18.34;35.74
55070;BME280;40967;52.070;8.596;2023-04-07T12:48:43;100623.69;;;18.31;35.89
55070;BME280;40967;52.070;8.596;2023-04-07T12:51:08;100617.34;;;18.22;35.69
55070;BME280;40967;52.070;8.596;2023-04-07T12:53:34;100618.66;;;18.24;35.75
55070;BME280;40967;52.070;8.596;2023-04-07T12:55:59;100623.63;;;18.13;35.87
55070;BME280;40967;52.070;8.596;2023-04-07T12:58:24;100627.56;;;17.99;35.87
55070;BME280;40967;52.070;8.596;2023-04-07T13:00:51;100629.03;;;17.96;36.47
55070;BME280;40967;52.070;8.596;2023-04-07T13:03:17;100631.72;;;17.88;36.58
55070;BME280;40967;52.070;8.596;2023-04-07T13:05:43;100616.25;;;17.92;36.68
55070;BME280;40967;52.070;8.596;2023-04-07T13:08:08;100613.84;;;17.99;36.74
55070;BME280;40967;52.070;8.596;2023-04-07T13:10:38;100617.19;;;17.87;36.64
55070;BME280;40967;52.070;8.596;2023-04-07T13:13:03;100621.97;;;17.73;36.42
55070;BME280;40967;52.070;8.596;2023-04-07T13:15:28;100618.03;;;17.66;36.63
55070;BME280;40967;52.070;8.596;2023-04-07T13:17:54;100622.09;;;17.68;36.91